Time;durP1;ratioP1;P1;durP2;ratioP2;P2;SDS_P1;SDS_P2;PMS_P1;PMS_P2;Temp;Humidity;BMP_temperature;BMP_pressure;BME280_temperature;BME280_humidity;BME280_pressure;Samples;Min_cycle;Max_cycle;Signal;HPM_P1;HPM_P2
2022/09/25 00:00:36;;;;;;;0.00;0.00;;;10.90;71.40;;;;;;5052450;28;20055;-75
2022/09/25 00:03:02;;;;;;;0.00;0.00;;;10.90;71.40;;;;;;5072697;28;20046;-75
2022/09/25 00:05:28;;;;;;;0.00;0.00;;;10.90;71.40;;;;;;5073051;28;20028;-75
2022/09/25 00:07:55;;;;;;;0.00;0.00;;;10.90;71.40;;;;;;5073133;28;20028;-75
2022/09/25 00:10:24;;;;;;;0.20;0.00;;;10.80;71.30;;;;;;5056426;28;20489;-75
2022/09/25 00:12:50;;;;;;;0.00;0.00;;;10.80;71.40;;;;;;5074216;28;20391;-75
2022/09/25 00:15:17;;;;;;;0.00;0.00;;;10.70;71.40;;;;;;5072074;28;20029;-75
2022/09/25 00:17:42;;;;;;;;;;;10.70;71.40;;;;;;5074569;28;20020;-75
2022/09/25 00:20:09;;;;;;;0.00;0.00;;;10.70;71.40;;;;;;5074052;28;19911;-75
2022/09/25 00:22:34;;;;;;;0.00;0.00;;;10.60;71.30;;;;;;5056373;28;20056;-75
2022/09/25 00:25:01;;;;;;;0.00;0.00;;;10.60;71.20;;;;;;5056089;28;20080;-75
2022/09/25 00:27:27;;;;;;;;;;;10.50;71.20;;;;;;5074651;28;20040;-75
2022/09/25 00:29:52;;;;;;;0.00;0.00;;;10.50;71.30;;;;;;5072618;28;19908;-75
2022/09/25 00:32:18;;;;;;;0.00;0.00;;;10.40;71.20;;;;;;5056128;28;20127;-75
2022/09/25 00:34:44;;;;;;;0.00;0.00;;;10.40;71.20;;;;;;5073765;28;20135;-75
2022/09/25 00:37:10;;;;;;;0.00;0.00;;;10.30;71.30;;;;;;5073804;28;20036;-75
2022/09/25 00:39:35;;;;;;;0.00;0.00;;;10.30;71.50;;;;;;5055673;28;20470;-75
2022/09/25 00:42:01;;;;;;;0.00;0.00;;;10.30;71.50;;;;;;5072355;28;20390;-75
2022/09/25 00:44:57;;;;;;;0.05;0.00;;;10.30;71.40;;;;;;5055783;28;20093;-75
2022/09/25 00:48:01;;;;;;;0.00;0.00;;;10.30;71.30;;;;;;5073762;28;20024;-75
2022/09/25 00:50:47;;;;;;;0.00;0.00;;;10.20;71.30;;;;;;5034236;28;20106;-75
2022/09/25 00:53:27;;;;;;;0.00;0.00;;;10.20;71.30;;;;;;5071381;28;20047;-75
2022/09/25 00:55:54;;;;;;;0.00;0.00;;;10.20;71.30;;;;;;5073625;28;20074;-75
2022/09/25 00:58:23;;;;;;;0.00;0.00;;;10.20;71.30;;;;;;5073497;28;20128;-75
2022/09/25 01:00:50;;;;;;;0.00;0.00;;;10.10;71.40;;;;;;5072127;28;20024;-75
2022/09/25 01:03:17;;;;;;;0.00;0.00;;;10.10;71.50;;;;;;5055480;28;20032;-75
2022/09/25 01:05:44;;;;;;;0.00;0.00;;;10.10;71.60;;;;;;5073437;28;20455;-75
2022/09/25 01:08:17;;;;;;;0.00;0.00;;;10.10;71.60;;;;;;5072385;28;20021;-75
2022/09/25 01:10:43;;;;;;;0.00;0.00;;;10.10;71.60;;;;;;5072227;28;20525;-75
2022/09/25 01:13:10;;;;;;;0.00;0.00;;;10.10;71.50;;;;;;5073424;28;20108;-75
2022/09/25 01:16:07;;;;;;;0.00;0.00;;;10.20;71.50;;;;;;5072912;28;20028;-75
2022/09/25 01:18:44;;;;;;;0.00;0.00;;;10.20;71.40;;;;;;5073236;28;20025;-75
2022/09/25 01:21:15;;;;;;;0.00;0.00;;;10.10;71.40;;;;;;5073060;28;20029;-75
2022/09/25 01:23:55;;;;;;;0.00;0.00;;;10.10;71.30;;;;;;5073140;28;20028;-75
2022/09/25 01:26:33;;;;;;;0.00;0.00;;;10.10;71.30;;;;;;5071669;28;20052;-75
2022/09/25 01:29:15;;;;;;;0.00;0.00;;;10.10;71.30;;;;;;5073086;28;20036;-75
2022/09/25 01:32:17;;;;;;;0.00;0.00;;;10.00;71.30;;;;;;5073049;28;20024;-75
2022/09/25 01:35:07;;;;;;;0.00;0.00;;;10.00;71.30;;;;;;5072813;28;20163;-75
2022/09/25 01:37:52;;;;;;;0.00;0.00;;;9.90;71.20;;;;;;5072798;28;20048;-75
2022/09/25 01:40:32;;;;;;;0.20;0.00;;;9.90;71.30;;;;;;5072729;28;20327;-75
2022/09/25 01:43:22;;;;;;;0.00;0.00;;;9.90;71.40;;;;;;5072785;28;20070;-75
2022/09/25 01:46:01;;;;;;;0.00;0.00;;;9.80;71.30;;;;;;5072844;28;20032;-75
2022/09/25 01:48:29;;;;;;;0.00;0.00;;;9.80;71.30;;;;;;5071562;28;20044;-75
2022/09/25 01:50:58;;;;;;;0.20;0.15;;;9.80;71.30;;;;;;5071126;28;20480;-75
2022/09/25 01:53:28;;;;;;;0.00;0.00;;;9.80;71.80;;;;;;5071160;28;20032;-75
2022/09/25 01:55:58;;;;;;;0.00;0.00;;;9.80;71.40;;;;;;5071148;28;20021;-75
2022/09/25 01:58:37;;;;;;;0.00;0.00;;;9.80;71.50;;;;;;5072475;28;20102;-75
2022/09/25 02:01:15;;;;;;;0.00;0.00;;;9.80;71.50;;;;;;5072356;28;20063;-75
2022/09/25 02:03:50;;;;;;;0.00;0.00;;;9.90;71.70;;;;;;5072319;28;20070;-75
2022/09/25 02:06:19;;;;;;;0.00;0.00;;;10.10;71.70;;;;;;5071037;28;20030;-75
2022/09/25 02:09:30;;;;;;;0.00;0.00;;;10.10;71.70;;;;;;5070846;28;20025;-75
2022/09/25 02:12:01;;;;;;;0.00;0.00;;;10.30;71.90;;;;;;5061714;28;20032;-75
2022/09/25 02:14:34;;;;;;;0.00;0.00;;;10.40;71.90;;;;;;5071789;28;20489;-74
2022/09/25 02:17:04;;;;;;;0.00;0.00;;;10.60;71.90;;;;;;5070686;28;20024;-75
2022/09/25 02:22:30;;;;;;;0.00;0.00;;;10.90;71.90;;;;;;5072152;28;20104;-75
2022/09/25 02:25:19;;;;;;;0.00;0.00;;;11.00;71.80;;;;;;5071505;28;20049;-75
2022/09/25 02:27:45;;;;;;;0.00;0.00;;;11.10;71.60;;;;;;5070561;28;20418;-75
2022/09/25 02:30:11;;;;;;;0.00;0.00;;;11.20;71.60;;;;;;5070343;28;20029;-75
2022/09/25 02:32:36;;;;;;;0.00;0.00;;;11.20;71.50;;;;;;5070545;28;20110;-75
2022/09/25 02:35:03;;;;;;;0.00;0.00;;;11.20;71.40;;;;;;5070381;28;20042;-75
2022/09/25 02:37:29;;;;;;;0.00;0.00;;;11.30;71.40;;;;;;5071755;28;20078;-76
2022/09/25 02:39:59;;;;;;;0.00;0.00;;;11.30;71.40;;;;;;5070413;28;20037;-75
2022/09/25 02:43:14;;;;;;;0.00;0.00;;;11.30;71.40;;;;;;5071583;28;20028;-75
2022/09/25 02:46:14;;;;;;;0.00;0.00;;;11.30;71.50;;;;;;5060460;28;20245;-75
2022/09/25 02:48:45;;;;;;;0.00;0.00;;;11.30;71.50;;;;;;5071679;28;20013;-75
2022/09/25 02:51:18;;;;;;;0.00;0.00;;;11.30;71.40;;;;;;5071270;28;20021;-75
2022/09/25 02:54:03;;;;;;;0.00;0.00;;;11.20;71.40;;;;;;5071256;28;20025;-75
2022/09/25 02:57:01;;;;;;;0.00;0.00;;;11.20;71.40;;;;;;5071131;28;20021;-75
2022/09/25 02:59:29;;;;;;;;;;;11.10;71.50;;;;;;5070973;28;20036;-75
2022/09/25 03:01:57;;;;;;;0.00;0.00;;;11.00;71.40;;;;;;5069692;28;19987;-75
2022/09/25 03:04:25;;;;;;;0.00;0.00;;;11.00;71.40;;;;;;5070806;28;20286;-75
2022/09/25 03:06:52;;;;;;;0.00;0.00;;;11.00;71.40;;;;;;5069489;28;20024;-75
2022/09/25 03:09:20;;;;;;;0.00;0.00;;;11.00;71.50;;;;;;5069801;28;20037;-75
2022/09/25 03:11:46;;;;;;;0.00;0.00;;;10.90;71.40;;;;;;5052934;28;20098;-75
2022/09/25 03:14:11;;;;;;;0.03;0.03;;;10.90;71.40;;;;;;5069602;28;20474;-75
2022/09/25 03:16:54;;;;;;;0.00;0.00;;;10.80;71.40;;;;;;5069496;28;20509;-75
2022/09/25 03:19:19;;;;;;;0.00;0.00;;;10.70;71.40;;;;;;5071072;28;20012;-74
2022/09/25 03:21:46;;;;;;;0.00;0.00;;;10.60;71.40;;;;;;5071206;28;20020;-75
2022/09/25 03:24:12;;;;;;;0.00;0.00;;;10.60;71.40;;;;;;5069427;28;20040;-75
2022/09/25 03:26:39;;;;;;;0.00;0.00;;;10.50;71.50;;;;;;5069588;28;20028;-75
2022/09/25 03:29:05;;;;;;;0.00;0.00;;;10.40;71.50;;;;;;5069562;28;20123;-75
2022/09/25 03:31:31;;;;;;;0.00;0.00;;;10.30;71.50;;;;;;5070839;28;20033;-75
2022/09/25 03:33:57;;;;;;;0.00;0.00;;;10.30;71.60;;;;;;5070513;28;20055;-75
2022/09/25 03:36:26;;;;;;;0.00;0.00;;;10.20;71.60;;;;;;5069211;28;20386;-75
2022/09/25 03:38:56;;;;;;;0.00;0.00;;;10.20;71.60;;;;;;5069323;28;20039;-75
2022/09/25 03:41:22;;;;;;;0.00;0.00;;;10.20;71.70;;;;;;5069502;28;20024;-75
2022/09/25 03:43:50;;;;;;;0.00;0.00;;;10.20;71.80;;;;;;5070746;28;20367;-75
2022/09/25 03:46:19;;;;;;;0.00;0.00;;;10.10;71.80;;;;;;5070760;28;20029;-75
2022/09/25 03:48:45;;;;;;;0.17;0.17;;;10.10;71.80;;;;;;5069345;28;20500;-75
2022/09/25 03:51:11;;;;;;;0.00;0.00;;;10.10;71.90;;;;;;5069622;28;20039;-75
2022/09/25 03:53:37;;;;;;;;;;;10.10;72.00;;;;;;5071041;28;20029;-75
2022/09/25 03:56:06;;;;;;;0.00;0.00;;;10.10;71.90;;;;;;5069308;28;19911;-75
2022/09/25 03:58:32;;;;;;;0.00;0.00;;;10.10;72.30;;;;;;5069112;28;20032;-75
2022/09/25 04:00:58;;;;;;;;;;;10.10;71.80;;;;;;5071259;28;20067;-74
2022/09/25 04:03:27;;;;;;;0.20;0.13;;;10.20;71.80;;;;;;5070643;28;19952;-74
2022/09/25 04:05:54;;;;;;;0.00;0.00;;;10.20;71.70;;;;;;5053026;28;20020;-74
2022/09/25 04:08:22;;;;;;;0.00;0.00;;;10.10;71.80;;;;;;5052650;28;20533;-74
2022/09/25 04:10:48;;;;;;;0.00;0.00;;;10.20;71.90;;;;;;5070517;28;20017;-74
2022/09/25 04:13:13;;;;;;;0.00;0.00;;;10.10;71.90;;;;;;5069350;28;20024;-74
2022/09/25 04:15:41;;;;;;;0.00;0.00;;;10.10;71.80;;;;;;5070439;28;20518;-74
2022/09/25 04:18:07;;;;;;;0.00;0.00;;;10.10;71.80;;;;;;5070856;28;20032;-74
2022/09/25 04:20:33;;;;;;;0.00;0.00;;;10.10;71.70;;;;;;5069039;28;20025;-74
2022/09/25 04:22:59;;;;;;;0.00;0.00;;;10.10;71.70;;;;;;5070465;28;20017;-74
2022/09/25 04:25:25;;;;;;;0.00;0.00;;;10.10;71.80;;;;;;5052315;28;20056;-74
2022/09/25 04:27:55;;;;;;;0.00;0.00;;;10.10;71.80;;;;;;5069097;28;20037;-74
2022/09/25 04:30:28;;;;;;;0.00;0.00;;;10.10;71.80;;;;;;5070385;28;20051;-74
2022/09/25 04:35:40;;;;;;;0.00;0.00;;;10.10;71.70;;;;;;5069611;28;20094;-74
2022/09/25 04:38:06;;;;;;;0.00;0.00;;;10.10;71.70;;;;;;5069051;28;20112;-74
2022/09/25 04:40:32;;;;;;;0.00;0.00;;;10.10;71.70;;;;;;5069025;28;20157;-74
2022/09/25 04:43:02;;;;;;;;;;;10.20;71.70;;;;;;5070716;28;20033;-74
2022/09/25 04:45:29;;;;;;;0.00;0.00;;;10.20;71.80;;;;;;5068877;28;19904;-74
2022/09/25 04:47:58;;;;;;;0.03;0.03;;;10.30;71.70;;;;;;5068766;28;20055;-74
2022/09/25 04:50:25;;;;;;;0.00;0.00;;;10.40;71.70;;;;;;5054886;28;20036;-74
2022/09/25 04:52:51;;;;;;;0.00;0.00;;;10.40;71.70;;;;;;5073687;28;20127;-74
2022/09/25 04:55:19;;;;;;;0.10;0.10;;;10.50;71.70;;;;;;5072269;28;20115;-74
2022/09/25 04:57:44;;;;;;;0.00;0.00;;;10.50;71.70;;;;;;5055818;28;20536;-74
2022/09/25 05:00:11;;;;;;;0.00;0.00;;;10.50;71.70;;;;;;5073674;28;20078;-74
2022/09/25 05:02:37;;;;;;;0.00;0.00;;;10.50;71.70;;;;;;5072265;28;20520;-74
2022/09/25 05:05:03;;;;;;;0.00;0.00;;;10.60;71.70;;;;;;5073598;28;20037;-74
2022/09/25 05:07:28;;;;;;;0.00;0.00;;;10.60;71.70;;;;;;5073556;28;20131;-74
2022/09/25 05:09:54;;;;;;;0.10;0.10;;;10.60;71.70;;;;;;5055469;28;20128;-74
2022/09/25 05:12:20;;;;;;;0.10;0.10;;;10.70;71.80;;;;;;5072136;28;20486;-74
2022/09/25 05:14:45;;;;;;;0.00;0.00;;;10.70;71.90;;;;;;5072349;28;20025;-74
2022/09/25 05:17:11;;;;;;;0.00;0.00;;;10.70;71.80;;;;;;5072207;28;20414;-74
2022/09/25 05:19:37;;;;;;;0.00;0.00;;;10.80;71.80;;;;;;5073229;28;20024;-74
2022/09/25 05:22:03;;;;;;;0.00;0.00;;;10.80;71.80;;;;;;5071931;28;20490;-74
2022/09/25 05:24:30;;;;;;;0.00;0.00;;;10.90;71.80;;;;;;5055010;28;20580;-74
2022/09/25 05:26:56;;;;;;;0.00;0.00;;;10.90;71.90;;;;;;5055221;28;20029;-74
2022/09/25 05:29:22;;;;;;;0.00;0.00;;;10.90;72.00;;;;;;5071630;28;20029;-74
2022/09/25 05:31:48;;;;;;;0.00;0.00;;;11.00;72.10;;;;;;5073037;28;20029;-78
2022/09/25 05:34:15;;;;;;;0.00;0.00;;;11.00;72.00;;;;;;5071741;28;20032;-78
2022/09/25 05:36:41;;;;;;;;;;;11.10;71.90;;;;;;5072401;28;20048;-78
2022/09/25 05:39:09;;;;;;;0.00;0.00;;;11.10;72.00;;;;;;5072935;28;19912;-78
2022/09/25 05:41:35;;;;;;;0.05;0.05;;;11.10;72.00;;;;;;5071512;28;20028;-78
2022/09/25 05:44:08;;;;;;;0.00;0.00;;;11.20;72.10;;;;;;5072663;28;20103;-74
2022/09/25 05:46:37;;;;;;;0.08;0.08;;;11.20;72.00;;;;;;5073217;28;20098;-75
2022/09/25 05:49:03;;;;;;;0.00;0.00;;;11.20;71.90;;;;;;5071326;28;20044;-74
2022/09/25 05:51:30;;;;;;;0.00;0.00;;;11.20;71.80;;;;;;5072473;28;20059;-74
2022/09/25 05:53:56;;;;;;;0.00;0.00;;;11.20;71.80;;;;;;5072462;28;20028;-74
2022/09/25 05:56:25;;;;;;;0.00;0.00;;;11.10;71.70;;;;;;5054882;28;20037;-75
2022/09/25 05:58:51;;;;;;;0.00;0.00;;;11.10;71.70;;;;;;5072297;28;20110;-74
2022/09/25 06:01:18;;;;;;;0.00;0.00;;;11.10;71.80;;;;;;5071795;28;20020;-78
2022/09/25 06:03:44;;;;;;;0.00;0.00;;;11.00;71.70;;;;;;5071056;28;20028;-78
2022/09/25 06:06:10;;;;;;;0.00;0.00;;;11.00;71.80;;;;;;5071055;28;20025;-78
2022/09/25 06:08:36;;;;;;;0.00;0.00;;;11.00;71.80;;;;;;5071004;28;20032;-78
2022/09/25 06:11:03;;;;;;;0.00;0.00;;;11.00;71.90;;;;;;5072186;28;20036;-77
2022/09/25 06:13:33;;;;;;;0.00;0.00;;;11.00;71.90;;;;;;5070675;28;20131;-78
2022/09/25 06:15:59;;;;;;;0.00;0.00;;;11.00;71.90;;;;;;5072047;28;20021;-78
2022/09/25 06:18:26;;;;;;;0.00;0.00;;;11.00;72.00;;;;;;5070671;28;20024;-78
2022/09/25 06:20:57;;;;;;;;;;;11.10;72.10;;;;;;5072417;28;20063;-78
2022/09/25 06:23:23;;;;;;;0.00;0.00;;;11.10;72.10;;;;;;5070602;28;19912;-78
2022/09/25 06:25:48;;;;;;;0.00;0.00;;;11.20;72.00;;;;;;5071574;28;20037;-78
2022/09/25 06:28:14;;;;;;;0.00;0.00;;;11.20;72.10;;;;;;5070663;28;20061;-77
2022/09/25 06:30:40;;;;;;;0.00;0.00;;;11.20;72.10;;;;;;5054193;28;20503;-78
2022/09/25 06:33:11;;;;;;;0.00;0.00;;;11.30;72.00;;;;;;5053962;28;20033;-78
2022/09/25 06:35:45;;;;;;;0.00;0.00;;;11.30;72.00;;;;;;5071637;28;20031;-78
2022/09/25 06:38:12;;;;;;;0.00;0.00;;;11.30;72.00;;;;;;5070436;28;20021;-77
2022/09/25 06:40:39;;;;;;;0.00;0.00;;;11.30;72.00;;;;;;5071608;28;20470;-76
2022/09/25 06:43:08;;;;;;;0.00;0.00;;;11.20;71.90;;;;;;5071522;28;20470;-77
2022/09/25 06:45:34;;;;;;;0.00;0.00;;;11.20;71.90;;;;;;5071388;28;20028;-77
2022/09/25 06:48:02;;;;;;;0.00;0.00;;;11.20;71.90;;;;;;5071333;28;20394;-78
2022/09/25 06:50:38;;;;;;;0.00;0.00;;;11.20;71.90;;;;;;5071346;28;20427;-78
2022/09/25 06:53:03;;;;;;;0.00;0.00;;;11.20;72.00;;;;;;5069982;28;20044;-78
2022/09/25 06:55:33;;;;;;;0.00;0.00;;;11.20;72.00;;;;;;5071300;28;20359;-78
2022/09/25 06:58:00;;;;;;;0.00;0.00;;;11.20;72.00;;;;;;5070117;28;20024;-78
2022/09/25 07:00:26;;;;;;;;;;;11.20;72.00;;;;;;5071646;28;20020;-77
2022/09/25 07:05:35;;;;;;;0.00;0.00;;;11.30;72.00;;;;;;5071817;28;20055;-78
2022/09/25 07:08:01;;;;;;;0.00;0.00;;;11.30;72.10;;;;;;5071254;28;20489;-77
2022/09/25 07:10:27;;;;;;;0.00;0.00;;;11.30;72.20;;;;;;5071090;28;20062;-78
2022/09/25 07:12:53;;;;;;;0.00;0.00;;;11.30;72.20;;;;;;5069098;28;20430;-78
2022/09/25 07:15:18;;;;;;;0.00;0.00;;;11.40;72.20;;;;;;5069730;28;20276;-78
2022/09/25 07:17:44;;;;;;;0.00;0.00;;;11.50;72.30;;;;;;5071094;28;20051;-78
2022/09/25 07:20:14;;;;;;;0.00;0.00;;;11.60;72.20;;;;;;5069698;28;20032;-78
2022/09/25 07:22:41;;;;;;;0.00;0.00;;;11.60;72.10;;;;;;5069818;28;20539;-78
2022/09/25 07:25:08;;;;;;;0.00;0.00;;;11.70;72.10;;;;;;5069410;28;20060;-78
2022/09/25 07:27:34;;;;;;;0.00;0.00;;;11.70;72.00;;;;;;5071111;28;20034;-78
2022/09/25 07:30:00;;;;;;;;;;;11.80;72.10;;;;;;5069765;28;20474;-78
2022/09/25 07:32:26;;;;;;;0.00;0.00;;;11.80;72.00;;;;;;5070430;28;19904;-78
2022/09/25 07:34:52;;;;;;;0.00;0.00;;;11.80;71.90;;;;;;5069086;28;20028;-78
2022/09/25 07:37:17;;;;;;;0.00;0.00;;;11.80;71.90;;;;;;5070576;28;20036;-78
2022/09/25 07:39:44;;;;;;;0.00;0.00;;;11.80;71.90;;;;;;5070457;28;20387;-78
2022/09/25 07:42:10;;;;;;;0.05;0.05;;;11.80;72.00;;;;;;5070058;28;20020;-77
2022/09/25 07:44:35;;;;;;;0.00;0.00;;;11.90;72.10;;;;;;5070668;28;20035;-77
2022/09/25 07:47:02;;;;;;;0.00;0.00;;;11.90;72.20;;;;;;5052759;28;20032;-77
2022/09/25 07:49:29;;;;;;;0.00;0.00;;;12.00;72.20;;;;;;5070536;28;20466;-77
2022/09/25 07:51:55;;;;;;;0.00;0.00;;;12.10;72.20;;;;;;5069338;28;20037;-77
2022/09/25 07:54:21;;;;;;;0.00;0.00;;;12.10;72.20;;;;;;5052671;28;20033;-78
2022/09/25 07:56:46;;;;;;;0.00;0.00;;;12.20;72.10;;;;;;5069276;28;20474;-78
2022/09/25 07:59:12;;;;;;;0.00;0.00;;;12.30;72.10;;;;;;5052881;28;20459;-78
2022/09/25 08:01:38;;;;;;;0.00;0.00;;;12.30;72.10;;;;;;5070422;28;20025;-77
2022/09/25 08:04:03;;;;;;;0.00;0.00;;;12.40;72.20;;;;;;5069201;28;20505;-78
2022/09/25 08:06:32;;;;;;;0.00;0.00;;;12.40;72.10;;;;;;5070414;28;20115;-79
2022/09/25 08:08:58;;;;;;;0.00;0.00;;;12.60;72.30;;;;;;5070481;28;20020;-79
2022/09/25 08:11:24;;;;;;;0.00;0.00;;;12.60;72.30;;;;;;5070451;28;20366;-79
2022/09/25 08:13:49;;;;;;;0.00;0.00;;;12.70;72.30;;;;;;5070674;28;20032;-79
2022/09/25 08:16:17;;;;;;;0.00;0.00;;;12.90;72.30;;;;;;5070478;28;20393;-79
2022/09/25 08:18:45;;;;;;;0.00;0.00;;;12.90;72.20;;;;;;5070337;28;20098;-79
2022/09/25 08:21:13;;;;;;;0.00;0.00;;;13.00;72.80;;;;;;5069070;28;20035;-78
2022/09/25 08:23:40;;;;;;;0.00;0.00;;;13.10;72.20;;;;;;5070737;28;20032;-79
2022/09/25 08:26:06;;;;;;;0.00;0.00;;;13.20;72.20;;;;;;5055937;28;20184;-78
2022/09/25 08:28:33;;;;;;;0.00;0.00;;;13.30;72.20;;;;;;5072904;28;20021;-79
2022/09/25 08:31:00;;;;;;;0.00;0.00;;;13.40;72.10;;;;;;5073668;28;20024;-79
2022/09/25 08:33:26;;;;;;;0.00;0.00;;;13.40;72.20;;;;;;5073497;28;20055;-79
2022/09/25 08:36:04;;;;;;;0.00;0.00;;;13.50;72.20;;;;;;5073771;28;20470;-79
2022/09/25 08:38:33;;;;;;;0.00;0.00;;;13.60;72.20;;;;;;5073650;28;20107;-78
2022/09/25 08:41:11;;;;;;;0.00;0.00;;;13.70;72.10;;;;;;5072417;28;20032;-79
2022/09/25 08:43:46;;;;;;;0.00;0.00;;;13.80;72.20;;;;;;5073866;28;20180;-79
2022/09/25 08:49:20;;;;;;;0.00;0.00;;;13.90;72.30;;;;;;5073626;28;20077;-79
2022/09/25 08:51:49;;;;;;;0.00;0.00;;;14.10;72.30;;;;;;5073461;28;20028;-79
2022/09/25 08:54:26;;;;;;;0.00;0.00;;;14.20;72.20;;;;;;5073378;28;20536;-79
2022/09/25 08:56:58;;;;;;;0.00;0.00;;;14.40;72.30;;;;;;5055532;28;20029;-79
2022/09/25 08:59:27;;;;;;;0.00;0.00;;;14.50;72.30;;;;;;5071397;28;20024;-79
2022/09/25 09:02:01;;;;;;;0.00;0.00;;;14.60;72.30;;;;;;5073233;28;20109;-79
2022/09/25 09:04:40;;;;;;;0.00;0.00;;;14.60;72.20;;;;;;5073271;28;20158;-79
2022/09/25 09:07:33;;;;;;;0.00;0.00;;;14.60;72.20;;;;;;5073401;28;20109;-78
2022/09/25 09:10:22;;;;;;;0.00;0.00;;;14.70;72.20;;;;;;5071750;28;20545;-78
2022/09/25 09:12:55;;;;;;;0.00;0.00;;;14.70;72.30;;;;;;5072873;28;20048;-78
2022/09/25 09:15:23;;;;;;;0.00;0.00;;;14.70;72.40;;;;;;5072874;28;20021;-78
2022/09/25 09:17:49;;;;;;;0.00;0.00;;;14.80;72.40;;;;;;5073010;28;20025;-78
2022/09/25 09:20:18;;;;;;;0.00;0.00;;;14.80;72.40;;;;;;5054420;28;20035;-77
2022/09/25 09:22:49;;;;;;;0.00;0.00;;;14.80;72.40;;;;;;5072884;28;20051;-78
2022/09/25 09:25:37;;;;;;;0.00;0.00;;;14.90;72.40;;;;;;5072352;28;20066;-78
2022/09/25 09:28:05;;;;;;;0.00;0.00;;;14.90;72.40;;;;;;5071904;28;20020;-78
2022/09/25 09:31:06;;;;;;;0.00;0.00;;;14.90;72.40;;;;;;5072631;28;20033;-78
2022/09/25 09:33:50;;;;;;;0.00;0.00;;;14.90;72.40;;;;;;5071192;28;20021;-78
2022/09/25 09:36:27;;;;;;;0.00;0.00;;;15.00;72.50;;;;;;5071996;28;20459;-78
2022/09/25 09:38:52;;;;;;;0.00;0.00;;;15.00;72.40;;;;;;5072317;28;20026;-78
2022/09/25 09:41:33;;;;;;;0.00;0.00;;;15.00;72.30;;;;;;5072095;28;20023;-78
2022/09/25 09:44:02;;;;;;;0.20;0.10;;;15.00;72.30;;;;;;5071117;28;20036;-78
2022/09/25 09:46:28;;;;;;;0.00;0.00;;;15.00;72.40;;;;;;5072340;28;20339;-78
2022/09/25 09:49:18;;;;;;;0.00;0.00;;;15.10;72.60;;;;;;5071821;28;20099;-78
2022/09/25 09:51:55;;;;;;;0.00;0.00;;;15.30;72.80;;;;;;5070271;28;20043;-78
2022/09/25 09:54:26;;;;;;;0.00;0.00;;;15.50;72.90;;;;;;5070577;28;20024;-78
2022/09/25 09:56:55;;;;;;;0.00;0.00;;;15.80;72.90;;;;;;5072419;28;20048;-78
2022/09/25 09:59:33;;;;;;;0.00;0.00;;;16.10;72.80;;;;;;5069917;28;20046;-78
2022/09/25 10:02:10;;;;;;;0.00;0.00;;;16.50;73.00;;;;;;5071759;28;20023;-79
2022/09/25 10:04:40;;;;;;;0.00;0.00;;;17.10;73.40;;;;;;5071694;28;20505;-78
2022/09/25 10:07:15;;;;;;;0.00;0.00;;;17.70;73.10;;;;;;5071868;28;20024;-78
2022/09/25 10:09:41;;;;;;;0.00;0.00;;;18.10;72.60;;;;;;5072073;28;20036;-78
2022/09/25 10:12:31;;;;;;;0.00;0.00;;;18.40;72.40;;;;;;5071450;28;20344;-78
2022/09/25 10:15:01;;;;;;;0.00;0.00;;;18.50;72.20;;;;;;5071853;28;20069;-78
2022/09/25 10:17:29;;;;;;;0.00;0.00;;;18.60;72.20;;;;;;5069756;28;20563;-79
2022/09/25 10:19:59;;;;;;;0.00;0.00;;;18.50;72.00;;;;;;5071374;28;20024;-79
2022/09/25 10:22:28;;;;;;;0.00;0.00;;;18.30;71.80;;;;;;5071588;28;20162;-78
2022/09/25 10:25:01;;;;;;;0.00;0.00;;;18.10;71.90;;;;;;5071276;28;20039;-79
2022/09/25 10:27:30;;;;;;;0.00;0.00;;;18.00;72.40;;;;;;5071186;28;20054;-79
2022/09/25 10:30:05;;;;;;;0.00;0.00;;;18.10;72.70;;;;;;5069371;28;20032;-79
2022/09/25 10:32:42;;;;;;;0.00;0.00;;;18.30;73.10;;;;;;5070825;28;20032;-79
2022/09/25 10:35:33;;;;;;;;;;;18.50;73.10;;;;;;5071224;28;20028;-78
2022/09/25 10:38:00;;;;;;;0.00;0.00;;;18.70;73.10;;;;;;5067370;28;19930;-79
2022/09/25 10:40:33;;;;;;;0.00;0.00;;;18.90;73.20;;;;;;5071083;28;20035;-78
2022/09/25 10:43:19;;;;;;;0.00;0.00;;;19.10;73.10;;;;;;5070915;28;20103;-78
2022/09/25 10:45:48;;;;;;;0.00;0.00;;;19.30;73.10;;;;;;5071043;28;20112;-78
2022/09/25 10:51:23;;;;;;;0.00;0.00;;;19.90;73.30;;;;;;5071302;28;20074;-77
2022/09/25 10:53:51;;;;;;;0.00;0.00;;;20.00;73.20;;;;;;5068973;28;20094;-78
2022/09/25 10:56:20;;;;;;;0.00;0.00;;;20.30;73.70;;;;;;5071206;28;20366;-78
2022/09/25 10:58:50;;;;;;;0.00;0.00;;;20.80;74.20;;;;;;5070479;28;20025;-78
2022/09/25 11:01:16;;;;;;;0.00;0.00;;;21.70;74.70;;;;;;5070252;28;20027;-78
2022/09/25 11:03:54;;;;;;;0.00;0.00;;;22.50;74.00;;;;;;5069344;28;20025;-78
2022/09/25 11:06:31;;;;;;;0.00;0.00;;;22.70;73.10;;;;;;5070607;28;20020;-78
2022/09/25 11:09:34;;;;;;;0.00;0.00;;;22.60;72.30;;;;;;5070576;28;20017;-78
2022/09/25 11:12:32;;;;;;;0.00;0.00;;;22.30;72.30;;;;;;5065569;28;20028;-78
2022/09/25 11:15:01;;;;;;;0.00;0.00;;;22.00;72.40;;;;;;5046567;28;20062;-78
2022/09/25 11:17:40;;;;;;;0.00;0.00;;;21.80;72.50;;;;;;5070418;28;20024;-77
2022/09/25 11:20:16;;;;;;;0.00;0.00;;;21.60;72.70;;;;;;5069995;28;20030;-79
2022/09/25 11:22:54;;;;;;;0.00;0.00;;;21.50;72.80;;;;;;5070454;28;20103;-77
2022/09/25 11:25:27;;;;;;;0.00;0.00;;;21.30;73.00;;;;;;5070543;28;20044;-78
2022/09/25 11:27:57;;;;;;;0.00;0.00;;;21.20;73.00;;;;;;5070737;28;20108;-77
2022/09/25 11:30:31;;;;;;;0.00;0.00;;;21.20;73.10;;;;;;5069646;28;20048;-78
2022/09/25 11:33:16;;;;;;;0.00;0.00;;;21.10;72.90;;;;;;5070674;28;20021;-78
2022/09/25 11:35:56;;;;;;;0.00;0.00;;;21.00;73.00;;;;;;5070318;28;20025;-78
2022/09/25 11:41:33;;;;;;;0.00;0.00;;;21.60;74.00;;;;;;5069928;28;20054;-78
2022/09/25 11:44:21;;;;;;;0.00;0.00;;;22.10;73.30;;;;;;5068815;28;20025;-78
2022/09/25 11:47:06;;;;;;;0.00;0.00;;;22.10;72.90;;;;;;5067923;28;20360;-78
2022/09/25 11:49:37;;;;;;;0.00;0.00;;;22.00;72.50;;;;;;5069286;28;20443;-78
2022/09/25 11:52:22;;;;;;;0.00;0.00;;;21.80;72.40;;;;;;5068132;28;20529;-78
2022/09/25 11:55:06;;;;;;;0.00;0.00;;;21.60;72.50;;;;;;5069543;28;20025;-78
2022/09/25 11:57:49;;;;;;;0.00;0.00;;;21.40;72.50;;;;;;5069486;28;20017;-78
2022/09/25 12:00:33;;;;;;;0.00;0.00;;;21.20;72.60;;;;;;5073700;28;20096;-78
2022/09/25 12:03:17;;;;;;;0.00;0.00;;;20.90;72.80;;;;;;5072921;28;20032;-78
2022/09/25 12:06:12;;;;;;;0.00;0.00;;;20.80;72.90;;;;;;5075373;28;20062;-78
2022/09/25 12:08:59;;;;;;;0.00;0.00;;;20.60;72.90;;;;;;5075122;28;20081;-78
2022/09/25 12:11:46;;;;;;;0.00;0.00;;;20.50;72.90;;;;;;5072329;28;20029;-79
2022/09/25 12:14:38;;;;;;;;;;;20.50;72.80;;;;;;5074504;28;20028;-78
2022/09/25 12:17:19;;;;;;;0.00;0.00;;;20.40;72.70;;;;;;5064220;28;20211;-78
2022/09/25 12:20:10;;;;;;;0.00;0.00;;;20.20;72.70;;;;;;5073264;28;20090;-78
2022/09/25 12:22:55;;;;;;;0.00;0.00;;;20.10;72.80;;;;;;5073559;28;20021;-78
2022/09/25 12:25:29;;;;;;;0.00;0.00;;;20.00;72.80;;;;;;5073013;28;20052;-78
2022/09/25 12:28:12;;;;;;;0.00;0.00;;;19.90;72.90;;;;;;5073010;28;20390;-78
2022/09/25 12:31:09;;;;;;;0.00;0.00;;;19.90;73.10;;;;;;5071996;28;20031;-79
2022/09/25 12:33:51;;;;;;;0.00;0.00;;;20.00;73.20;;;;;;5071921;28;20029;-79
2022/09/25 12:36:26;;;;;;;0.00;0.00;;;20.00;73.10;;;;;;5072050;28;20580;-78
2022/09/25 12:39:20;;;;;;;0.00;0.00;;;20.10;72.90;;;;;;5073176;28;20095;-79
2022/09/25 12:41:48;;;;;;;0.00;0.00;;;20.00;72.70;;;;;;5073225;28;20024;-78
2022/09/25 12:44:16;;;;;;;0.00;0.00;;;19.90;72.60;;;;;;5071864;28;20035;-78
2022/09/25 12:46:52;;;;;;;0.00;0.00;;;19.70;72.70;;;;;;5073302;28;20029;-79
2022/09/25 12:49:35;;;;;;;0.00;0.00;;;19.70;73.10;;;;;;5071712;28;20096;-78
2022/09/25 12:52:10;;;;;;;0.00;0.00;;;19.80;73.20;;;;;;5073257;28;20102;-79
2022/09/25 12:55:02;;;;;;;0.00;0.00;;;19.80;73.00;;;;;;5073606;28;20095;-79
2022/09/25 12:57:41;;;;;;;0.00;0.00;;;19.80;72.80;;;;;;5071573;28;20025;-76
2022/09/25 13:00:28;;;;;;;0.00;0.00;;;19.70;73.00;;;;;;5071638;28;20051;-72
2022/09/25 13:03:18;;;;;;;0.00;0.00;;;19.80;73.30;;;;;;5072686;28;20025;-75
2022/09/25 13:06:07;;;;;;;0.00;0.00;;;19.90;73.30;;;;;;5072619;28;20025;-75
2022/09/25 13:08:43;;;;;;;0.00;0.00;;;19.90;72.90;;;;;;5070904;28;20101;-76
2022/09/25 13:11:37;;;;;;;0.00;0.00;;;19.80;72.80;;;;;;5069673;28;20024;-75
2022/09/25 13:14:08;;;;;;;0.00;0.00;;;19.50;72.50;;;;;;5068995;28;20335;-76
2022/09/25 13:16:34;;;;;;;0.00;0.00;;;19.30;72.40;;;;;;5072603;28;20024;-75
2022/09/25 13:19:22;;;;;;;;;;;19.10;72.60;;;;;;5072633;28;20478;-75
2022/09/25 13:21:48;;;;;;;;;;;19.00;72.80;;;;;;5072592;28;19904;-75
2022/09/25 13:24:15;;;;;;;0.00;0.00;;;18.90;72.80;;;;;;5070285;28;20404;-75
2022/09/25 13:26:54;;;;;;;0.00;0.00;;;18.90;72.80;;;;;;5070772;28;20078;-76
2022/09/25 13:29:30;;;;;;;0.00;0.00;;;19.00;72.80;;;;;;5070624;28;20025;-74
2022/09/25 13:32:17;;;;;;;0.00;0.00;;;19.10;72.90;;;;;;5070650;28;20044;-75
2022/09/25 13:34:44;;;;;;;0.00;0.00;;;19.10;72.60;;;;;;5071798;28;20096;-75